sensor_id;sensor_type;location;lat;lon;timestamp;P1;durP1;ratioP1;P2;durP2;ratioP2
57067;SDS011;43391;47.448;18.904;2023-10-19T10:15:14;56.58;;;34.92;;
57067;SDS011;43391;47.448;18.904;2023-10-19T10:17:41;55.38;;;36.35;;
57067;SDS011;43391;47.448;18.904;2023-10-19T10:22:43;44.00;;;33.13;;
57067;SDS011;43391;47.448;18.904;2023-10-19T10:25:25;52.88;;;35.42;;
57067;SDS011;43391;47.448;18.904;2023-10-19T10:27:54;45.80;;;33.92;;
57067;SDS011;43391;47.448;18.904;2023-10-19T10:30:20;47.60;;;35.58;;
57067;SDS011;43391;47.448;18.904;2023-10-19T10:32:46;47.50;;;34.50;;
57067;SDS011;43391;47.448;18.904;2023-10-19T10:38:01;49.92;;;35.72;;
57067;SDS011;43391;47.448;18.904;2023-10-19T10:40:27;49.67;;;32.95;;
57067;SDS011;43391;47.448;18.904;2023-10-19T10:43:05;52.42;;;34.78;;
57067;SDS011;43391;47.448;18.904;2023-10-19T10:45:31;58.23;;;37.17;;
57067;SDS011;43391;47.448;18.904;2023-10-19T10:47:56;47.55;;;35.22;;
57067;SDS011;43391;47.448;18.904;2023-10-19T10:50:22;56.47;;;35.42;;
57067;SDS011;43391;47.448;18.904;2023-10-19T10:52:48;49.65;;;35.75;;
57067;SDS011;43391;47.448;18.904;2023-10-19T10:55:14;50.90;;;35.03;;
57067;SDS011;43391;47.448;18.904;2023-10-19T10:57:40;49.92;;;35.17;;
57067;SDS011;43391;47.448;18.904;2023-10-19T11:00:11;48.78;;;35.08;;
57067;SDS011;43391;47.448;18.904;2023-10-19T11:02:40;48.80;;;35.97;;
57067;SDS011;43391;47.448;18.904;2023-10-19T11:05:15;55.78;;;34.90;;
57067;SDS011;43391;47.448;18.904;2023-10-19T11:07:49;50.42;;;33.35;;
57067;SDS011;43391;47.448;18.904;2023-10-19T11:10:32;44.58;;;33.88;;
57067;SDS011;43391;47.448;18.904;2023-10-19T11:13:09;51.58;;;34.65;;
57067;SDS011;43391;47.448;18.904;2023-10-19T11:15:36;45.20;;;33.60;;
57067;SDS011;43391;47.448;18.904;2023-10-19T11:18:03;45.88;;;33.53;;
57067;SDS011;43391;47.448;18.904;2023-10-19T11:20:29;50.03;;;35.20;;
57067;SDS011;43391;47.448;18.904;2023-10-19T11:22:55;47.50;;;34.03;;
57067;SDS011;43391;47.448;18.904;2023-10-19T11:27:49;53.92;;;34.80;;
57067;SDS011;43391;47.448;18.904;2023-10-19T11:30:22;53.00;;;33.72;;
57067;SDS011;43391;47.448;18.904;2023-10-19T11:32:49;46.85;;;33.17;;
57067;SDS011;43391;47.448;18.904;2023-10-19T11:35:17;48.85;;;32.35;;
57067;SDS011;43391;47.448;18.904;2023-10-19T11:37:48;40.75;;;30.95;;
57067;SDS011;43391;47.448;18.904;2023-10-19T11:40:20;44.20;;;31.55;;
57067;SDS011;43391;47.448;18.904;2023-10-19T11:42:46;44.05;;;31.02;;
57067;SDS011;43391;47.448;18.904;2023-10-19T11:45:12;42.30;;;31.30;;
57067;SDS011;43391;47.448;18.904;2023-10-19T11:47:38;42.83;;;31.13;;
57067;SDS011;43391;47.448;18.904;2023-10-19T11:50:04;46.38;;;32.00;;
57067;SDS011;43391;47.448;18.904;2023-10-19T11:52:29;52.58;;;31.05;;
57067;SDS011;43391;47.448;18.904;2023-10-19T11:54:55;51.30;;;31.98;;
57067;SDS011;43391;47.448;18.904;2023-10-19T11:57:21;44.35;;;31.98;;
57067;SDS011;43391;47.448;18.904;2023-10-19T11:59:46;42.03;;;30.17;;
57067;SDS011;43391;47.448;18.904;2023-10-19T12:02:17;45.83;;;31.63;;
57067;SDS011;43391;47.448;18.904;2023-10-19T12:04:46;43.50;;;32.60;;
57067;SDS011;43391;47.448;18.904;2023-10-19T12:07:11;44.22;;;32.20;;
57067;SDS011;43391;47.448;18.904;2023-10-19T12:09:37;43.53;;;33.58;;
57067;SDS011;43391;47.448;18.904;2023-10-19T12:12:02;53.58;;;34.22;;
57067;SDS011;43391;47.448;18.904;2023-10-19T12:14:31;48.53;;;33.75;;
57067;SDS011;43391;47.448;18.904;2023-10-19T12:16:59;48.77;;;35.47;;
57067;SDS011;43391;47.448;18.904;2023-10-19T12:19:26;49.65;;;34.17;;
57067;SDS011;43391;47.448;18.904;2023-10-19T12:21:54;49.28;;;34.05;;
57067;SDS011;43391;47.448;18.904;2023-10-19T12:24:20;47.60;;;33.10;;
57067;SDS011;43391;47.448;18.904;2023-10-19T12:26:46;50.10;;;34.50;;
57067;SDS011;43391;47.448;18.904;2023-10-19T12:29:11;49.85;;;36.95;;
57067;SDS011;43391;47.448;18.904;2023-10-19T12:31:39;50.88;;;36.40;;
57067;SDS011;43391;47.448;18.904;2023-10-19T12:34:05;53.97;;;36.28;;
57067;SDS011;43391;47.448;18.904;2023-10-19T12:36:32;50.75;;;36.92;;
57067;SDS011;43391;47.448;18.904;2023-10-19T12:38:59;52.08;;;36.17;;
57067;SDS011;43391;47.448;18.904;2023-10-19T12:41:26;54.53;;;37.65;;
57067;SDS011;43391;47.448;18.904;2023-10-19T12:43:55;56.58;;;37.15;;
57067;SDS011;43391;47.448;18.904;2023-10-19T12:46:25;58.40;;;38.42;;
57067;SDS011;43391;47.448;18.904;2023-10-19T12:48:52;60.80;;;38.50;;
57067;SDS011;43391;47.448;18.904;2023-10-19T12:51:21;55.13;;;38.00;;
57067;SDS011;43391;47.448;18.904;2023-10-19T12:53:50;55.33;;;37.92;;
57067;SDS011;43391;47.448;18.904;2023-10-19T12:56:16;59.78;;;36.97;;
57067;SDS011;43391;47.448;18.904;2023-10-19T12:58:45;55.88;;;39.08;;
57067;SDS011;43391;47.448;18.904;2023-10-19T13:01:13;62.17;;;37.47;;
57067;SDS011;43391;47.448;18.904;2023-10-19T13:03:42;53.60;;;37.78;;
57067;SDS011;43391;47.448;18.904;2023-10-19T13:06:10;58.13;;;37.47;;
57067;SDS011;43391;47.448;18.904;2023-10-19T13:08:37;55.75;;;37.88;;
57067;SDS011;43391;47.448;18.904;2023-10-19T13:11:05;55.22;;;39.10;;
57067;SDS011;43391;47.448;18.904;2023-10-19T13:13:31;60.60;;;40.92;;
57067;SDS011;43391;47.448;18.904;2023-10-19T13:15:57;54.63;;;37.60;;
57067;SDS011;43391;47.448;18.904;2023-10-19T13:18:22;52.28;;;35.42;;
57067;SDS011;43391;47.448;18.904;2023-10-19T13:20:52;54.75;;;37.15;;
57067;SDS011;43391;47.448;18.904;2023-10-19T13:23:19;56.05;;;39.08;;
57067;SDS011;43391;47.448;18.904;2023-10-19T13:28:33;70.68;;;40.92;;
57067;SDS011;43391;47.448;18.904;2023-10-19T13:30:59;61.22;;;38.42;;
57067;SDS011;43391;47.448;18.904;2023-10-19T13:33:24;73.28;;;44.65;;
57067;SDS011;43391;47.448;18.904;2023-10-19T13:35:49;69.78;;;40.33;;
57067;SDS011;43391;47.448;18.904;2023-10-19T13:38:16;60.05;;;38.38;;
57067;SDS011;43391;47.448;18.904;2023-10-19T13:40:45;67.68;;;43.35;;
57067;SDS011;43391;47.448;18.904;2023-10-19T13:43:11;76.85;;;44.33;;
57067;SDS011;43391;47.448;18.904;2023-10-19T13:45:43;63.60;;;41.90;;
57067;SDS011;43391;47.448;18.904;2023-10-19T13:48:09;85.88;;;50.70;;
57067;SDS011;43391;47.448;18.904;2023-10-19T13:50:40;62.20;;;38.60;;
57067;SDS011;43391;47.448;18.904;2023-10-19T13:53:07;58.92;;;38.10;;
57067;SDS011;43391;47.448;18.904;2023-10-19T13:55:34;57.80;;;39.65;;
57067;SDS011;43391;47.448;18.904;2023-10-19T13:58:01;55.47;;;39.50;;
57067;SDS011;43391;47.448;18.904;2023-10-19T14:00:27;62.60;;;40.80;;
57067;SDS011;43391;47.448;18.904;2023-10-19T14:03:00;55.78;;;39.28;;
57067;SDS011;43391;47.448;18.904;2023-10-19T14:05:27;55.30;;;38.38;;
57067;SDS011;43391;47.448;18.904;2023-10-19T14:07:55;61.00;;;39.80;;
57067;SDS011;43391;47.448;18.904;2023-10-19T14:10:21;66.63;;;38.97;;
57067;SDS011;43391;47.448;18.904;2023-10-19T14:12:47;64.97;;;41.58;;
57067;SDS011;43391;47.448;18.904;2023-10-19T14:15:14;54.08;;;38.97;;
57067;SDS011;43391;47.448;18.904;2023-10-19T14:17:45;67.25;;;40.15;;
57067;SDS011;43391;47.448;18.904;2023-10-19T14:20:12;59.85;;;38.92;;
57067;SDS011;43391;47.448;18.904;2023-10-19T14:22:46;66.65;;;41.30;;
57067;SDS011;43391;47.448;18.904;2023-10-19T14:25:14;58.35;;;39.95;;
57067;SDS011;43391;47.448;18.904;2023-10-19T14:30:09;60.20;;;39.95;;
57067;SDS011;43391;47.448;18.904;2023-10-19T14:32:40;61.25;;;39.25;;
57067;SDS011;43391;47.448;18.904;2023-10-19T14:35:07;60.60;;;39.50;;
57067;SDS011;43391;47.448;18.904;2023-10-19T14:37:40;57.97;;;37.65;;
57067;SDS011;43391;47.448;18.904;2023-10-19T14:40:08;56.70;;;39.53;;
57067;SDS011;43391;47.448;18.904;2023-10-19T14:42:37;53.55;;;38.25;;
57067;SDS011;43391;47.448;18.904;2023-10-19T14:45:10;60.92;;;40.85;;
57067;SDS011;43391;47.448;18.904;2023-10-19T14:47:38;62.60;;;38.95;;
57067;SDS011;43391;47.448;18.904;2023-10-19T14:50:11;61.70;;;39.70;;
57067;SDS011;43391;47.448;18.904;2023-10-19T14:52:39;63.03;;;40.83;;
57067;SDS011;43391;47.448;18.904;2023-10-19T14:55:05;63.67;;;41.95;;
57067;SDS011;43391;47.448;18.904;2023-10-19T14:57:32;66.38;;;40.47;;
57067;SDS011;43391;47.448;18.904;2023-10-19T14:59:58;65.13;;;40.90;;
57067;SDS011;43391;47.448;18.904;2023-10-19T15:02:34;63.28;;;42.08;;
57067;SDS011;43391;47.448;18.904;2023-10-19T15:05:01;66.43;;;43.13;;
57067;SDS011;43391;47.448;18.904;2023-10-19T15:07:29;70.95;;;43.00;;
57067;SDS011;43391;47.448;18.904;2023-10-19T15:09:54;66.60;;;43.50;;
57067;SDS011;43391;47.448;18.904;2023-10-19T15:12:20;63.08;;;43.83;;
57067;SDS011;43391;47.448;18.904;2023-10-19T15:14:45;68.97;;;44.00;;
57067;SDS011;43391;47.448;18.904;2023-10-19T15:17:10;69.35;;;44.33;;
57067;SDS011;43391;47.448;18.904;2023-10-19T15:19:36;70.18;;;45.03;;
57067;SDS011;43391;47.448;18.904;2023-10-19T15:22:02;72.43;;;44.70;;
57067;SDS011;43391;47.448;18.904;2023-10-19T15:24:27;66.53;;;44.85;;
57067;SDS011;43391;47.448;18.904;2023-10-19T15:26:52;72.28;;;45.13;;
57067;SDS011;43391;47.448;18.904;2023-10-19T15:29:18;70.78;;;45.10;;
57067;SDS011;43391;47.448;18.904;2023-10-19T15:31:43;68.78;;;44.72;;
57067;SDS011;43391;47.448;18.904;2023-10-19T15:34:09;64.55;;;43.95;;
57067;SDS011;43391;47.448;18.904;2023-10-19T15:36:34;65.55;;;43.42;;
57067;SDS011;43391;47.448;18.904;2023-10-19T15:39:00;66.18;;;42.53;;
57067;SDS011;43391;47.448;18.904;2023-10-19T15:41:25;61.72;;;42.25;;
57067;SDS011;43391;47.448;18.904;2023-10-19T15:43:51;62.58;;;42.67;;
57067;SDS011;43391;47.448;18.904;2023-10-19T15:46:17;67.90;;;43.05;;
57067;SDS011;43391;47.448;18.904;2023-10-19T15:48:44;65.15;;;46.22;;
57067;SDS011;43391;47.448;18.904;2023-10-19T15:51:10;65.75;;;45.08;;
57067;SDS011;43391;47.448;18.904;2023-10-19T15:53:35;78.20;;;50.55;;
57067;SDS011;43391;47.448;18.904;2023-10-19T15:56:04;73.57;;;51.15;;
57067;SDS011;43391;47.448;18.904;2023-10-19T15:58:29;72.40;;;46.03;;
57067;SDS011;43391;47.448;18.904;2023-10-19T16:00:54;72.00;;;47.88;;
57067;SDS011;43391;47.448;18.904;2023-10-19T16:03:20;84.25;;;57.85;;
57067;SDS011;43391;47.448;18.904;2023-10-19T16:05:46;112.60;;;81.88;;
57067;SDS011;43391;47.448;18.904;2023-10-19T16:08:11;93.53;;;66.90;;
57067;SDS011;43391;47.448;18.904;2023-10-19T16:10:37;78.88;;;53.75;;
57067;SDS011;43391;47.448;18.904;2023-10-19T16:13:03;73.97;;;50.72;;
57067;SDS011;43391;47.448;18.904;2023-10-19T16:15:29;74.70;;;49.85;;
57067;SDS011;43391;47.448;18.904;2023-10-19T16:17:56;68.55;;;46.05;;
57067;SDS011;43391;47.448;18.904;2023-10-19T16:20:21;67.43;;;43.95;;
57067;SDS011;43391;47.448;18.904;2023-10-19T16:22:47;70.25;;;44.40;;
57067;SDS011;43391;47.448;18.904;2023-10-19T16:25:14;70.28;;;44.78;;
57067;SDS011;43391;47.448;18.904;2023-10-19T16:27:40;74.10;;;47.05;;
57067;SDS011;43391;47.448;18.904;2023-10-19T16:30:06;71.38;;;46.35;;
57067;SDS011;43391;47.448;18.904;2023-10-19T16:32:42;68.85;;;45.05;;
57067;SDS011;43391;47.448;18.904;2023-10-19T16:35:08;73.00;;;45.63;;
57067;SDS011;43391;47.448;18.904;2023-10-19T16:37:35;89.45;;;53.97;;
57067;SDS011;43391;47.448;18.904;2023-10-19T16:40:01;77.40;;;49.20;;
57067;SDS011;43391;47.448;18.904;2023-10-19T16:44:56;83.68;;;49.55;;
57067;SDS011;43391;47.448;18.904;2023-10-19T16:47:23;83.40;;;50.30;;
57067;SDS011;43391;47.448;18.904;2023-10-19T16:49:49;78.57;;;48.45;;
57067;SDS011;43391;47.448;18.904;2023-10-19T16:52:16;84.38;;;52.90;;
57067;SDS011;43391;47.448;18.904;2023-10-19T16:54:43;91.88;;;53.20;;
57067;SDS011;43391;47.448;18.904;2023-10-19T16:57:10;83.10;;;49.85;;
57067;SDS011;43391;47.448;18.904;2023-10-19T16:59:36;85.85;;;53.13;;
57067;SDS011;43391;47.448;18.904;2023-10-19T17:02:03;83.30;;;49.33;;
57067;SDS011;43391;47.448;18.904;2023-10-19T17:04:29;83.63;;;50.67;;
57067;SDS011;43391;47.448;18.904;2023-10-19T17:06:56;84.65;;;49.63;;
57067;SDS011;43391;47.448;18.904;2023-10-19T17:09:22;81.25;;;49.38;;
57067;SDS011;43391;47.448;18.904;2023-10-19T17:11:50;84.18;;;48.45;;
57067;SDS011;43391;47.448;18.904;2023-10-19T17:16:46;79.53;;;46.95;;
57067;SDS011;43391;47.448;18.904;2023-10-19T17:19:13;86.95;;;50.03;;
57067;SDS011;43391;47.448;18.904;2023-10-19T17:21:39;82.45;;;47.92;;
57067;SDS011;43391;47.448;18.904;2023-10-19T17:24:05;84.38;;;51.10;;
57067;SDS011;43391;47.448;18.904;2023-10-19T17:26:32;84.47;;;48.92;;
57067;SDS011;43391;47.448;18.904;2023-10-19T17:28:59;91.30;;;49.05;;
57067;SDS011;43391;47.448;18.904;2023-10-19T17:31:25;86.18;;;49.03;;
57067;SDS011;43391;47.448;18.904;2023-10-19T17:33:51;85.63;;;51.08;;
57067;SDS011;43391;47.448;18.904;2023-10-19T17:36:18;86.72;;;48.55;;
57067;SDS011;43391;47.448;18.904;2023-10-19T17:38:46;82.90;;;48.90;;
57067;SDS011;43391;47.448;18.904;2023-10-19T17:41:12;79.32;;;47.45;;
57067;SDS011;43391;47.448;18.904;2023-10-19T17:43:40;80.38;;;47.15;;
57067;SDS011;43391;47.448;18.904;2023-10-19T17:46:06;90.63;;;50.10;;
57067;SDS011;43391;47.448;18.904;2023-10-19T17:48:32;85.28;;;49.88;;
57067;SDS011;43391;47.448;18.904;2023-10-19T17:51:07;83.65;;;48.58;;
57067;SDS011;43391;47.448;18.904;2023-10-19T17:53:45;86.47;;;48.55;;
57067;SDS011;43391;47.448;18.904;2023-10-19T17:56:13;83.68;;;47.67;;
57067;SDS011;43391;47.448;18.904;2023-10-19T17:58:43;88.68;;;48.70;;
57067;SDS011;43391;47.448;18.904;2023-10-19T18:01:10;79.25;;;47.15;;
57067;SDS011;43391;47.448;18.904;2023-10-19T18:03:39;85.78;;;49.75;;
57067;SDS011;43391;47.448;18.904;2023-10-19T18:06:05;85.30;;;47.40;;
57067;SDS011;43391;47.448;18.904;2023-10-19T18:08:35;83.85;;;47.05;;
57067;SDS011;43391;47.448;18.904;2023-10-19T18:11:01;81.82;;;46.53;;
57067;SDS011;43391;47.448;18.904;2023-10-19T18:13:28;91.80;;;48.50;;
57067;SDS011;43391;47.448;18.904;2023-10-19T18:15:56;85.57;;;50.05;;
57067;SDS011;43391;47.448;18.904;2023-10-19T18:18:24;78.28;;;45.80;;
57067;SDS011;43391;47.448;18.904;2023-10-19T18:20:54;87.88;;;51.05;;
57067;SDS011;43391;47.448;18.904;2023-10-19T18:23:21;97.78;;;52.28;;
57067;SDS011;43391;47.448;18.904;2023-10-19T18:25:49;100.03;;;54.63;;
57067;SDS011;43391;47.448;18.904;2023-10-19T18:28:15;86.18;;;49.88;;
57067;SDS011;43391;47.448;18.904;2023-10-19T18:30:41;82.63;;;48.92;;
57067;SDS011;43391;47.448;18.904;2023-10-19T18:33:08;89.90;;;49.47;;
57067;SDS011;43391;47.448;18.904;2023-10-19T18:35:39;88.60;;;51.22;;
57067;SDS011;43391;47.448;18.904;2023-10-19T18:40:34;78.97;;;48.35;;
57067;SDS011;43391;47.448;18.904;2023-10-19T18:43:02;85.50;;;48.90;;
57067;SDS011;43391;47.448;18.904;2023-10-19T18:45:28;83.30;;;49.28;;
57067;SDS011;43391;47.448;18.904;2023-10-19T18:47:54;84.25;;;47.88;;
57067;SDS011;43391;47.448;18.904;2023-10-19T18:50:21;86.18;;;47.88;;
57067;SDS011;43391;47.448;18.904;2023-10-19T18:52:48;80.85;;;47.78;;
57067;SDS011;43391;47.448;18.904;2023-10-19T18:55:14;79.13;;;47.47;;
57067;SDS011;43391;47.448;18.904;2023-10-19T18:57:47;83.68;;;49.30;;
57067;SDS011;43391;47.448;18.904;2023-10-19T19:00:14;89.18;;;51.83;;
57067;SDS011;43391;47.448;18.904;2023-10-19T19:02:40;86.47;;;51.35;;
57067;SDS011;43391;47.448;18.904;2023-10-19T19:05:06;88.53;;;49.10;;
57067;SDS011;43391;47.448;18.904;2023-10-19T19:07:33;85.53;;;50.65;;
57067;SDS011;43391;47.448;18.904;2023-10-19T19:09:59;91.55;;;50.97;;
57067;SDS011;43391;47.448;18.904;2023-10-19T19:12:25;91.78;;;52.13;;
57067;SDS011;43391;47.448;18.904;2023-10-19T19:14:50;92.93;;;51.50;;
57067;SDS011;43391;47.448;18.904;2023-10-19T19:17:17;87.40;;;50.22;;
57067;SDS011;43391;47.448;18.904;2023-10-19T19:19:43;99.13;;;53.10;;
57067;SDS011;43391;47.448;18.904;2023-10-19T19:22:09;87.82;;;52.58;;
57067;SDS011;43391;47.448;18.904;2023-10-19T19:24:35;91.45;;;53.78;;
57067;SDS011;43391;47.448;18.904;2023-10-19T19:27:03;83.75;;;50.28;;
57067;SDS011;43391;47.448;18.904;2023-10-19T19:29:29;91.43;;;51.92;;
57067;SDS011;43391;47.448;18.904;2023-10-19T19:31:55;95.15;;;52.83;;
57067;SDS011;43391;47.448;18.904;2023-10-19T19:34:21;90.50;;;52.47;;
57067;SDS011;43391;47.448;18.904;2023-10-19T19:36:47;88.18;;;51.03;;
57067;SDS011;43391;47.448;18.904;2023-10-19T19:39:12;82.82;;;50.25;;
57067;SDS011;43391;47.448;18.904;2023-10-19T19:41:42;96.38;;;54.45;;
57067;SDS011;43391;47.448;18.904;2023-10-19T19:44:11;94.33;;;52.60;;
57067;SDS011;43391;47.448;18.904;2023-10-19T19:46:36;104.65;;;56.60;;
57067;SDS011;43391;47.448;18.904;2023-10-19T19:49:02;127.53;;;68.18;;
57067;SDS011;43391;47.448;18.904;2023-10-19T19:51:28;95.18;;;53.58;;
57067;SDS011;43391;47.448;18.904;2023-10-19T19:53:53;98.95;;;53.08;;
57067;SDS011;43391;47.448;18.904;2023-10-19T19:56:19;96.45;;;55.58;;
57067;SDS011;43391;47.448;18.904;2023-10-19T19:58:46;103.20;;;54.58;;
57067;SDS011;43391;47.448;18.904;2023-10-19T20:01:12;99.10;;;53.88;;
57067;SDS011;43391;47.448;18.904;2023-10-19T20:03:37;96.03;;;51.72;;
57067;SDS011;43391;47.448;18.904;2023-10-19T20:06:03;90.88;;;51.58;;
57067;SDS011;43391;47.448;18.904;2023-10-19T20:08:29;91.88;;;52.10;;
57067;SDS011;43391;47.448;18.904;2023-10-19T20:10:56;93.22;;;53.58;;
57067;SDS011;43391;47.448;18.904;2023-10-19T20:13:21;93.82;;;52.17;;
57067;SDS011;43391;47.448;18.904;2023-10-19T20:15:49;88.90;;;50.65;;
57067;SDS011;43391;47.448;18.904;2023-10-19T20:18:15;87.82;;;50.58;;
57067;SDS011;43391;47.448;18.904;2023-10-19T20:20:41;94.40;;;53.50;;
57067;SDS011;43391;47.448;18.904;2023-10-19T20:23:06;94.85;;;52.30;;
57067;SDS011;43391;47.448;18.904;2023-10-19T20:25:32;86.55;;;50.30;;
57067;SDS011;43391;47.448;18.904;2023-10-19T20:27:58;85.85;;;50.75;;
57067;SDS011;43391;47.448;18.904;2023-10-19T20:30:25;92.07;;;52.60;;
57067;SDS011;43391;47.448;18.904;2023-10-19T20:32:51;88.30;;;51.10;;
57067;SDS011;43391;47.448;18.904;2023-10-19T20:35:20;94.28;;;54.08;;
57067;SDS011;43391;47.448;18.904;2023-10-19T20:37:46;96.35;;;54.47;;
57067;SDS011;43391;47.448;18.904;2023-10-19T20:40:12;93.95;;;53.67;;
57067;SDS011;43391;47.448;18.904;2023-10-19T20:42:44;96.45;;;53.38;;
57067;SDS011;43391;47.448;18.904;2023-10-19T20:45:13;92.85;;;52.40;;
57067;SDS011;43391;47.448;18.904;2023-10-19T20:47:49;94.60;;;52.95;;
57067;SDS011;43391;47.448;18.904;2023-10-19T20:50:16;90.45;;;51.97;;
57067;SDS011;43391;47.448;18.904;2023-10-19T20:52:44;85.45;;;50.13;;
57067;SDS011;43391;47.448;18.904;2023-10-19T20:55:10;93.75;;;51.55;;
57067;SDS011;43391;47.448;18.904;2023-10-19T20:57:37;85.70;;;51.05;;
57067;SDS011;43391;47.448;18.904;2023-10-19T21:00:06;95.10;;;53.05;;
57067;SDS011;43391;47.448;18.904;2023-10-19T21:02:34;95.95;;;53.35;;
57067;SDS011;43391;47.448;18.904;2023-10-19T21:05:00;91.57;;;51.45;;
57067;SDS011;43391;47.448;18.904;2023-10-19T21:07:25;94.10;;;52.28;;
57067;SDS011;43391;47.448;18.904;2023-10-19T21:09:51;95.07;;;52.42;;
57067;SDS011;43391;47.448;18.904;2023-10-19T21:12:17;100.72;;;54.63;;
57067;SDS011;43391;47.448;18.904;2023-10-19T21:14:43;99.35;;;51.85;;
57067;SDS011;43391;47.448;18.904;2023-10-19T21:17:08;93.50;;;52.53;;
57067;SDS011;43391;47.448;18.904;2023-10-19T21:19:33;88.13;;;50.72;;
57067;SDS011;43391;47.448;18.904;2023-10-19T21:21:59;85.28;;;49.25;;
57067;SDS011;43391;47.448;18.904;2023-10-19T21:24:26;92.15;;;51.38;;
57067;SDS011;43391;47.448;18.904;2023-10-19T21:26:53;94.45;;;52.20;;
57067;SDS011;43391;47.448;18.904;2023-10-19T21:29:18;89.90;;;52.13;;
57067;SDS011;43391;47.448;18.904;2023-10-19T21:31:43;94.63;;;52.53;;
57067;SDS011;43391;47.448;18.904;2023-10-19T21:34:09;96.03;;;53.10;;
57067;SDS011;43391;47.448;18.904;2023-10-19T21:36:34;97.20;;;52.42;;
57067;SDS011;43391;47.448;18.904;2023-10-19T21:39:00;99.57;;;52.50;;
57067;SDS011;43391;47.448;18.904;2023-10-19T21:41:26;92.40;;;51.72;;
57067;SDS011;43391;47.448;18.904;2023-10-19T21:43:52;90.50;;;51.25;;
57067;SDS011;43391;47.448;18.904;2023-10-19T21:46:18;93.20;;;51.13;;
57067;SDS011;43391;47.448;18.904;2023-10-19T21:48:43;94.05;;;53.70;;
57067;SDS011;43391;47.448;18.904;2023-10-19T21:51:09;85.85;;;49.50;;
57067;SDS011;43391;47.448;18.904;2023-10-19T21:53:34;88.80;;;50.33;;
57067;SDS011;43391;47.448;18.904;2023-10-19T21:55:59;90.28;;;51.40;;
57067;SDS011;43391;47.448;18.904;2023-10-19T21:58:25;94.13;;;51.25;;
57067;SDS011;43391;47.448;18.904;2023-10-19T22:00:50;90.68;;;51.95;;
57067;SDS011;43391;47.448;18.904;2023-10-19T22:03:25;95.18;;;51.50;;
57067;SDS011;43391;47.448;18.904;2023-10-19T22:08:16;91.78;;;50.60;;
57067;SDS011;43391;47.448;18.904;2023-10-19T22:10:41;88.20;;;50.83;;
57067;SDS011;43391;47.448;18.904;2023-10-19T22:13:07;90.93;;;51.05;;
57067;SDS011;43391;47.448;18.904;2023-10-19T22:15:32;89.60;;;49.35;;
57067;SDS011;43391;47.448;18.904;2023-10-19T22:17:58;85.63;;;49.10;;
57067;SDS011;43391;47.448;18.904;2023-10-19T22:20:23;100.07;;;58.25;;
57067;SDS011;43391;47.448;18.904;2023-10-19T22:22:49;88.68;;;53.33;;
57067;SDS011;43391;47.448;18.904;2023-10-19T22:25:14;82.55;;;49.53;;
57067;SDS011;43391;47.448;18.904;2023-10-19T22:27:45;90.80;;;52.08;;
57067;SDS011;43391;47.448;18.904;2023-10-19T22:30:11;84.60;;;50.25;;
57067;SDS011;43391;47.448;18.904;2023-10-19T22:32:37;85.85;;;46.97;;
57067;SDS011;43391;47.448;18.904;2023-10-19T22:35:02;85.53;;;50.15;;
57067;SDS011;43391;47.448;18.904;2023-10-19T22:37:30;82.72;;;50.10;;
57067;SDS011;43391;47.448;18.904;2023-10-19T22:39:56;84.63;;;49.35;;
57067;SDS011;43391;47.448;18.904;2023-10-19T22:42:21;85.43;;;47.88;;
57067;SDS011;43391;47.448;18.904;2023-10-19T22:44:47;85.50;;;49.15;;
57067;SDS011;43391;47.448;18.904;2023-10-19T22:47:13;90.78;;;50.58;;
57067;SDS011;43391;47.448;18.904;2023-10-19T22:49:40;80.47;;;49.15;;
57067;SDS011;43391;47.448;18.904;2023-10-19T22:52:06;88.22;;;49.17;;
57067;SDS011;43391;47.448;18.904;2023-10-19T22:54:31;84.07;;;47.10;;
57067;SDS011;43391;47.448;18.904;2023-10-19T22:56:56;82.38;;;47.05;;
57067;SDS011;43391;47.448;18.904;2023-10-19T22:59:22;84.40;;;48.20;;
57067;SDS011;43391;47.448;18.904;2023-10-19T23:01:48;81.75;;;47.72;;
57067;SDS011;43391;47.448;18.904;2023-10-19T23:04:13;79.05;;;48.67;;
57067;SDS011;43391;47.448;18.904;2023-10-19T23:06:39;84.95;;;48.22;;
57067;SDS011;43391;47.448;18.904;2023-10-19T23:09:05;90.53;;;53.25;;
57067;SDS011;43391;47.448;18.904;2023-10-19T23:11:39;100.60;;;55.15;;
57067;SDS011;43391;47.448;18.904;2023-10-19T23:14:05;92.30;;;53.58;;
57067;SDS011;43391;47.448;18.904;2023-10-19T23:16:30;90.35;;;51.35;;
57067;SDS011;43391;47.448;18.904;2023-10-19T23:18:59;87.13;;;50.58;;
57067;SDS011;43391;47.448;18.904;2023-10-19T23:21:25;83.88;;;49.55;;
57067;SDS011;43391;47.448;18.904;2023-10-19T23:23:57;87.22;;;49.42;;
57067;SDS011;43391;47.448;18.904;2023-10-19T23:26:24;87.70;;;50.58;;
57067;SDS011;43391;47.448;18.904;2023-10-19T23:28:49;80.47;;;48.50;;
57067;SDS011;43391;47.448;18.904;2023-10-19T23:31:18;83.00;;;48.55;;
57067;SDS011;43391;47.448;18.904;2023-10-19T23:33:48;78.25;;;45.70;;
57067;SDS011;43391;47.448;18.904;2023-10-19T23:36:15;82.65;;;47.15;;
57067;SDS011;43391;47.448;18.904;2023-10-19T23:38:40;77.95;;;46.53;;
57067;SDS011;43391;47.448;18.904;2023-10-19T23:41:06;77.78;;;45.65;;
57067;SDS011;43391;47.448;18.904;2023-10-19T23:43:31;81.07;;;46.95;;
57067;SDS011;43391;47.448;18.904;2023-10-19T23:45:57;71.25;;;44.60;;
57067;SDS011;43391;47.448;18.904;2023-10-19T23:48:24;76.82;;;45.17;;
57067;SDS011;43391;47.448;18.904;2023-10-19T23:50:50;75.53;;;44.15;;
57067;SDS011;43391;47.448;18.904;2023-10-19T23:53:16;78.70;;;48.17;;
57067;SDS011;43391;47.448;18.904;2023-10-19T23:55:42;76.07;;;44.25;;
57067;SDS011;43391;47.448;18.904;2023-10-19T23:58:08;77.93;;;47.50;;
